createdAt,value
2023-12-12T00:01:05.191Z,87.72
2023-12-12T00:03:34.341Z,87.70
2023-12-12T00:06:02.696Z,87.91
2023-12-12T00:08:30.588Z,87.86
2023-12-12T00:10:59.820Z,87.73
2023-12-12T00:13:27.946Z,87.35
2023-12-12T00:15:55.862Z,87.52
2023-12-12T00:18:23.781Z,86.89
2023-12-12T00:20:52.331Z,87.00
2023-12-12T00:23:20.588Z,86.96
2023-12-12T00:25:48.378Z,86.43
2023-12-12T00:28:18.038Z,87.20
2023-12-12T00:30:45.866Z,87.59
2023-12-12T00:33:13.810Z,86.82
2023-12-12T00:35:41.658Z,87.55
2023-12-12T00:38:09.512Z,86.93
2023-12-12T00:40:37.374Z,86.73
2023-12-12T00:43:05.234Z,87.41
2023-12-12T00:45:34.397Z,86.86
2023-12-12T00:48:02.330Z,86.30
2023-12-12T00:50:30.168Z,86.37
2023-12-12T00:52:57.913Z,87.21
2023-12-12T00:55:25.774Z,87.24
2023-12-12T00:57:53.577Z,87.28
2023-12-12T01:00:21.578Z,86.88
2023-12-12T01:02:51.305Z,86.47
2023-12-12T01:05:19.285Z,85.46
2023-12-12T01:07:47.242Z,86.64
2023-12-12T01:10:15.134Z,86.57
2023-12-12T01:12:42.976Z,86.40
2023-12-12T01:15:11.912Z,86.83
2023-12-12T01:17:39.773Z,86.98
2023-12-12T01:20:10.293Z,86.12
2023-12-12T01:22:38.184Z,86.61
2023-12-12T01:25:07.530Z,86.26
2023-12-12T01:27:35.297Z,86.35
2023-12-12T01:30:03.175Z,86.25
2023-12-12T01:32:31.099Z,85.37
2023-12-12T01:34:58.964Z,85.62
2023-12-12T01:37:28.182Z,85.72
2023-12-12T01:39:56.083Z,86.09
2023-12-12T01:42:23.942Z,85.99
2023-12-12T01:44:51.713Z,86.57
2023-12-12T01:47:19.677Z,86.45
2023-12-12T01:49:47.682Z,86.23
2023-12-12T01:52:15.889Z,86.60
2023-12-12T01:54:47.634Z,87.11
2023-12-12T01:57:17.074Z,87.02
2023-12-12T01:59:45.359Z,87.24
2023-12-12T02:02:13.256Z,86.82
2023-12-12T02:04:41.621Z,86.71
2023-12-12T02:07:09.471Z,87.06
2023-12-12T02:09:37.717Z,86.40
2023-12-12T02:12:07.247Z,86.73
2023-12-12T02:14:38.311Z,86.71
2023-12-12T02:17:06.795Z,86.68
2023-12-12T02:19:34.707Z,87.07
2023-12-12T02:22:03.997Z,86.73
2023-12-12T02:24:31.787Z,87.47
2023-12-12T02:26:59.691Z,86.86
2023-12-12T02:29:27.471Z,87.16
2023-12-12T02:31:55.312Z,87.66
2023-12-12T02:34:23.233Z,87.57
2023-12-12T02:36:51.070Z,86.90
2023-12-12T02:39:20.262Z,87.00
2023-12-12T02:41:48.046Z,86.94
2023-12-12T02:44:15.856Z,87.60
2023-12-12T02:46:43.616Z,87.50
2023-12-12T02:49:11.594Z,87.53
2023-12-12T02:51:39.550Z,87.09
2023-12-12T02:54:07.308Z,87.33
2023-12-12T02:56:36.491Z,87.09
2023-12-12T02:59:04.408Z,87.39
2023-12-12T03:01:32.237Z,87.03
2023-12-12T03:04:00.085Z,86.75
2023-12-12T03:06:27.937Z,86.83
2023-12-12T03:08:55.741Z,87.49
2023-12-12T03:11:23.511Z,87.32
2023-12-12T03:13:52.725Z,87.79
2023-12-12T03:16:20.605Z,87.25
2023-12-12T03:18:48.422Z,88.02
2023-12-12T03:21:16.269Z,87.73
2023-12-12T03:23:44.061Z,87.95
2023-12-12T03:26:12.425Z,88.13
2023-12-12T03:28:40.592Z,87.83
2023-12-12T03:31:10.456Z,87.88
2023-12-12T03:33:38.379Z,88.01
2023-12-12T03:36:08.830Z,88.11
2023-12-12T03:38:36.659Z,87.80
2023-12-12T03:41:04.569Z,88.26
2023-12-12T03:43:32.420Z,88.01
2023-12-12T03:46:00.302Z,87.83
2023-12-12T03:48:29.605Z,87.73
2023-12-12T03:50:56.443Z,88.00
2023-12-12T03:53:24.280Z,88.00
2023-12-12T03:55:52.059Z,88.08
2023-12-12T03:58:19.906Z,88.13
2023-12-12T04:00:47.736Z,88.02
2023-12-12T04:03:15.593Z,87.95
2023-12-12T04:05:44.883Z,87.89
2023-12-12T04:08:12.652Z,87.79
2023-12-12T04:10:40.495Z,88.15
2023-12-12T04:13:08.272Z,87.85
2023-12-12T04:15:36.218Z,88.06
2023-12-12T04:18:04.222Z,88.52
2023-12-12T04:20:32.065Z,88.83
2023-12-12T04:23:01.265Z,88.76
2023-12-12T04:25:29.300Z,88.75
2023-12-12T04:27:57.188Z,88.77
2023-12-12T04:30:25.104Z,88.65
2023-12-12T04:32:53.446Z,88.63
2023-12-12T04:35:21.884Z,88.76
2023-12-12T04:37:51.466Z,89.03
2023-12-12T04:40:20.782Z,88.93
2023-12-12T04:42:48.612Z,88.47
2023-12-12T04:45:16.418Z,88.92
2023-12-12T04:47:44.586Z,89.15
2023-12-12T04:50:13.893Z,89.31
2023-12-12T04:52:41.823Z,88.73
2023-12-12T04:55:11.497Z,88.65
2023-12-12T04:57:40.993Z,89.15
2023-12-12T05:00:14.897Z,89.62
2023-12-12T05:02:43.563Z,89.02
2023-12-12T05:05:11.444Z,89.50
2023-12-12T05:07:39.269Z,89.73
2023-12-12T05:10:08.178Z,89.66
2023-12-12T05:12:36.166Z,89.06
2023-12-12T05:15:06.752Z,89.10
2023-12-12T05:17:34.788Z,89.34
2023-12-12T05:20:03.841Z,88.74
2023-12-12T05:22:31.804Z,89.48
2023-12-12T05:24:59.667Z,89.21
2023-12-12T05:27:27.526Z,89.24
2023-12-12T05:29:55.641Z,89.14
2023-12-12T05:32:25.060Z,89.61
2023-12-12T05:34:52.958Z,89.52
2023-12-12T05:37:20.837Z,89.23
2023-12-12T05:39:48.902Z,89.65
2023-12-12T05:42:16.688Z,89.37
2023-12-12T05:44:44.452Z,89.78
2023-12-12T05:47:12.269Z,89.30
2023-12-12T05:49:42.562Z,90.01
2023-12-12T05:52:10.596Z,89.37
2023-12-12T05:54:38.837Z,90.06
2023-12-12T05:57:06.988Z,89.54
2023-12-12T05:59:38.240Z,89.96
2023-12-12T06:02:09.252Z,89.98
2023-12-12T06:04:39.555Z,89.73
2023-12-12T06:07:14.399Z,90.26
2023-12-12T06:09:42.564Z,90.30
2023-12-12T06:12:10.657Z,90.26
2023-12-12T06:14:38.528Z,89.96
2023-12-12T06:17:06.801Z,90.11
2023-12-12T06:19:35.728Z,90.50
2023-12-12T06:22:05.421Z,90.04
2023-12-12T06:24:36.009Z,90.77
2023-12-12T06:27:03.861Z,90.29
2023-12-12T06:29:31.660Z,90.57
2023-12-12T06:31:59.590Z,90.40
2023-12-12T06:34:27.550Z,90.89
2023-12-12T06:36:55.993Z,91.04
2023-12-12T06:39:23.824Z,90.64
2023-12-12T06:41:53.050Z,90.77
2023-12-12T06:44:31.675Z,90.73
2023-12-12T06:46:59.874Z,91.11
2023-12-12T06:49:27.734Z,90.68
2023-12-12T06:51:55.667Z,90.68
2023-12-12T06:54:23.502Z,90.62
2023-12-12T06:56:53.317Z,90.62
2023-12-12T06:59:21.329Z,90.34
2023-12-12T07:01:49.146Z,90.72
2023-12-12T07:04:17.181Z,90.73
2023-12-12T07:06:45.188Z,90.43
2023-12-12T07:09:13.765Z,90.65
2023-12-12T07:11:42.809Z,90.10
2023-12-12T07:14:12.033Z,89.92
2023-12-12T07:16:39.859Z,89.96
2023-12-12T07:19:08.891Z,89.56
2023-12-12T07:21:40.748Z,90.18
2023-12-12T07:24:08.675Z,90.21
2023-12-12T07:26:36.570Z,90.11
2023-12-12T07:29:04.376Z,90.00
2023-12-12T07:31:33.596Z,89.64
2023-12-12T07:34:01.547Z,89.72
2023-12-12T07:36:29.537Z,89.66
2023-12-12T07:39:01.534Z,88.98
2023-12-12T07:41:29.567Z,88.97
2023-12-12T07:43:57.510Z,89.09
2023-12-12T07:46:25.774Z,89.23
2023-12-12T07:48:56.734Z,88.84
2023-12-12T07:51:24.633Z,88.90
2023-12-12T07:53:53.056Z,88.66
2023-12-12T07:56:20.876Z,88.75
2023-12-12T07:58:48.768Z,88.86
2023-12-12T08:01:17.900Z,88.45
2023-12-12T08:03:45.944Z,88.27
2023-12-12T08:06:19.480Z,88.15
2023-12-12T08:08:48.836Z,87.97
2023-12-12T08:11:17.073Z,87.67
2023-12-12T08:13:47.170Z,87.14
2023-12-12T08:16:15.174Z,87.74
2023-12-12T08:18:42.218Z,87.98
2023-12-12T08:21:10.472Z,87.18
2023-12-12T08:23:42.924Z,87.11
2023-12-12T08:26:11.756Z,87.48
2023-12-12T08:28:39.690Z,86.89
2023-12-12T08:31:07.927Z,87.46
2023-12-12T08:33:36.114Z,87.11
2023-12-12T08:36:05.261Z,87.21
2023-12-12T08:38:33.142Z,87.10
2023-12-12T08:41:02.280Z,87.38
2023-12-12T08:43:30.131Z,87.96
2023-12-12T08:45:58.348Z,86.78
2023-12-12T08:48:26.274Z,86.03
2023-12-12T08:50:56.761Z,86.52
2023-12-12T08:53:28.282Z,86.50
2023-12-12T08:55:57.110Z,86.21
2023-12-12T08:58:26.792Z,86.51
2023-12-12T09:00:55.432Z,86.06
2023-12-12T09:03:23.763Z,85.58
2023-12-12T09:05:52.066Z,85.83
2023-12-12T09:08:20.102Z,85.43
2023-12-12T09:10:48.008Z,85.69
2023-12-12T09:13:15.949Z,85.85
2023-12-12T09:15:45.159Z,84.38
2023-12-12T09:18:19.615Z,85.18
2023-12-12T09:20:48.710Z,84.24
2023-12-12T09:23:17.944Z,84.14
2023-12-12T09:25:47.045Z,84.84
2023-12-12T09:28:15.971Z,84.20
2023-12-12T09:30:45.300Z,83.59
2023-12-12T09:33:13.207Z,84.04
2023-12-12T09:35:41.077Z,83.44
2023-12-12T09:38:08.900Z,83.44
2023-12-12T09:40:38.306Z,83.05
2023-12-12T09:43:06.553Z,82.42
2023-12-12T09:45:34.431Z,82.95
2023-12-12T09:48:03.865Z,82.08
2023-12-12T09:50:32.278Z,80.57
2023-12-12T09:53:01.893Z,80.92
2023-12-12T09:55:30.320Z,81.69
2023-12-12T09:57:58.322Z,80.72
2023-12-12T10:00:26.233Z,81.85
2023-12-12T10:02:56.646Z,80.89
2023-12-12T10:05:26.628Z,82.01
2023-12-12T10:08:00.803Z,81.51
2023-12-12T10:10:33.357Z,80.17
2023-12-12T10:13:01.203Z,80.37
2023-12-12T10:15:29.564Z,80.69
2023-12-12T10:18:01.413Z,81.22
2023-12-12T10:20:32.198Z,79.02
2023-12-12T10:23:04.266Z,79.78
2023-12-12T10:25:33.110Z,80.29
2023-12-12T10:28:01.434Z,79.86
2023-12-12T10:30:29.422Z,80.83
2023-12-12T10:32:57.637Z,79.42
2023-12-12T10:35:26.225Z,79.03
2023-12-12T10:37:55.462Z,79.55
2023-12-12T10:40:25.049Z,78.81
2023-12-12T10:42:53.593Z,79.07
2023-12-12T10:45:25.609Z,77.50
2023-12-12T10:47:54.948Z,77.65
2023-12-12T10:50:23.099Z,78.58
2023-12-12T10:52:51.564Z,77.39
2023-12-12T10:55:21.347Z,77.49
2023-12-12T10:57:49.684Z,76.53
2023-12-12T11:00:20.839Z,74.55
2023-12-12T11:02:49.910Z,75.50
2023-12-12T11:05:18.740Z,73.24
2023-12-12T11:07:50.378Z,74.69
2023-12-12T11:10:23.561Z,73.87
2023-12-12T11:12:54.056Z,73.88
2023-12-12T11:15:22.943Z,75.44
2023-12-12T11:17:51.709Z,75.61
2023-12-12T11:20:26.917Z,73.97
2023-12-12T11:22:55.302Z,74.58
2023-12-12T11:25:25.077Z,74.34
2023-12-12T11:28:00.001Z,74.78
2023-12-12T11:30:32.567Z,75.68
2023-12-12T11:33:01.743Z,74.67
2023-12-12T11:35:32.392Z,74.86
2023-12-12T11:38:02.271Z,74.62
2023-12-12T11:40:32.155Z,73.99
2023-12-12T11:43:03.318Z,74.94
2023-12-12T11:45:32.790Z,75.91
2023-12-12T11:48:09.011Z,74.69
2023-12-12T11:50:37.446Z,75.69
2023-12-12T11:53:05.459Z,75.56
2023-12-12T11:55:43.701Z,74.68
2023-12-12T11:58:12.098Z,74.83
2023-12-12T12:00:42.037Z,74.70
2023-12-12T12:03:10.796Z,74.25
2023-12-12T12:05:39.174Z,75.20
2023-12-12T12:08:08.656Z,74.16
2023-12-12T12:10:41.030Z,74.25
2023-12-12T12:13:08.984Z,73.38
2023-12-12T12:15:36.731Z,72.35
2023-12-12T12:18:26.627Z,68.86
2023-12-12T12:20:54.607Z,72.27
2023-12-12T12:23:22.824Z,73.18
2023-12-12T12:25:52.213Z,73.22
2023-12-12T12:28:20.178Z,74.17
2023-12-12T12:30:48.660Z,74.37
2023-12-12T12:33:16.624Z,74.06
2023-12-12T12:35:52.705Z,72.92
2023-12-12T12:38:26.974Z,74.08
2023-12-12T12:40:56.354Z,73.95
2023-12-12T12:43:24.678Z,73.92
2023-12-12T12:45:53.094Z,74.43
2023-12-12T12:48:21.774Z,73.95
2023-12-12T12:50:51.438Z,73.64
2023-12-12T12:53:19.625Z,73.79
2023-12-12T12:55:48.865Z,73.36
2023-12-12T12:58:18.506Z,74.05
2023-12-12T13:00:47.524Z,73.49
2023-12-12T13:03:15.884Z,74.51
2023-12-12T13:05:43.810Z,75.07
2023-12-12T13:08:11.715Z,75.24
2023-12-12T13:10:47.110Z,76.15
2023-12-12T13:13:21.305Z,76.44
2023-12-12T13:15:50.108Z,76.55
2023-12-12T13:18:19.591Z,76.83
2023-12-12T13:20:48.136Z,77.16
2023-12-12T13:23:16.179Z,77.62
2023-12-12T13:25:44.346Z,78.15
2023-12-12T13:28:12.259Z,78.41
2023-12-12T13:30:41.619Z,78.27
2023-12-12T13:33:11.472Z,78.40
2023-12-12T13:35:39.655Z,78.80
2023-12-12T13:38:07.666Z,79.91
2023-12-12T13:40:35.859Z,79.85
2023-12-12T13:43:04.177Z,80.31
2023-12-12T13:45:32.714Z,79.71
2023-12-12T13:48:06.473Z,80.07
2023-12-12T13:50:34.739Z,81.24
2023-12-12T13:53:02.804Z,81.03
2023-12-12T13:55:30.829Z,81.79
2023-12-12T13:57:58.719Z,82.31
2023-12-12T14:00:29.084Z,82.82
2023-12-12T14:02:56.882Z,83.00
2023-12-12T14:05:29.088Z,82.29
2023-12-12T14:07:57.755Z,81.79
2023-12-12T14:10:25.626Z,82.65
2023-12-12T14:12:53.588Z,83.16
2023-12-12T14:15:21.689Z,84.51
2023-12-12T14:17:49.639Z,84.53
2023-12-12T14:20:17.562Z,85.61
2023-12-12T14:22:54.818Z,84.85
2023-12-12T14:25:26.534Z,84.88
2023-12-12T14:27:54.437Z,85.03
2023-12-12T14:30:27.324Z,85.37
2023-12-12T14:32:57.758Z,84.20
2023-12-12T14:35:25.989Z,87.22
2023-12-12T14:37:55.145Z,86.90
2023-12-12T14:40:22.950Z,87.05
2023-12-12T14:42:51.021Z,86.23
2023-12-12T14:45:19.691Z,85.39
2023-12-12T14:47:46.647Z,86.60
2023-12-12T14:50:14.531Z,87.71
2023-12-12T14:52:44.311Z,87.54
2023-12-12T14:55:13.880Z,89.73
2023-12-12T14:57:41.760Z,88.09
2023-12-12T15:00:17.778Z,88.46
2023-12-12T15:02:51.837Z,87.29
2023-12-12T15:05:19.813Z,89.83
2023-12-12T15:07:47.693Z,90.66
2023-12-12T15:10:17.029Z,88.96
2023-12-12T15:12:44.818Z,89.72
2023-12-12T15:15:12.841Z,90.44
2023-12-12T15:17:40.930Z,89.90
2023-12-12T15:20:10.367Z,91.42
2023-12-12T15:22:38.275Z,91.80
2023-12-12T15:25:06.953Z,91.92
2023-12-12T15:27:36.110Z,90.60
2023-12-12T15:30:04.870Z,89.98
2023-12-12T15:32:33.994Z,90.78
2023-12-12T15:35:02.612Z,90.88
2023-12-12T15:37:30.603Z,91.91
2023-12-12T15:40:02.072Z,91.01
2023-12-12T15:42:30.497Z,92.46
2023-12-12T15:44:59.905Z,91.35
2023-12-12T15:47:27.740Z,91.20
2023-12-12T15:49:55.641Z,91.07
2023-12-12T15:52:23.451Z,91.45
2023-12-12T15:54:51.225Z,91.61
2023-12-12T15:57:19.475Z,91.05
2023-12-12T15:59:47.308Z,91.01
2023-12-12T16:02:16.634Z,91.45
2023-12-12T16:04:44.535Z,91.94
2023-12-12T16:07:12.357Z,90.74
2023-12-12T16:09:40.203Z,90.81
2023-12-12T16:12:09.397Z,90.32
2023-12-12T16:14:37.144Z,90.52
2023-12-12T16:17:05.139Z,90.55
2023-12-12T16:19:34.386Z,91.16
2023-12-12T16:22:02.295Z,91.27
2023-12-12T16:24:32.006Z,90.04
2023-12-12T16:26:59.854Z,89.90
2023-12-12T16:29:27.656Z,89.74
2023-12-12T16:31:55.528Z,89.90
2023-12-12T16:34:23.489Z,89.91
2023-12-12T16:36:57.601Z,89.78
2023-12-12T16:39:32.412Z,90.90
2023-12-12T16:42:00.240Z,91.63
2023-12-12T16:44:27.995Z,91.53
2023-12-12T16:46:55.804Z,92.39
2023-12-12T16:49:23.813Z,90.56
2023-12-12T16:51:53.306Z,90.65
2023-12-12T16:54:21.828Z,91.46
2023-12-12T16:56:49.907Z,91.94
2023-12-12T16:59:18.694Z,92.19
2023-12-12T17:01:46.799Z,91.49
2023-12-12T17:04:15.051Z,90.92
2023-12-12T17:06:42.917Z,90.52
2023-12-12T17:09:12.085Z,90.17
2023-12-12T17:11:39.896Z,89.92
2023-12-12T17:14:07.763Z,89.99
2023-12-12T17:16:36.492Z,90.87
2023-12-12T17:19:04.637Z,91.79
2023-12-12T17:21:32.607Z,91.36
2023-12-12T17:24:01.110Z,91.53
2023-12-12T17:26:30.326Z,91.20
2023-12-12T17:28:58.286Z,90.80
2023-12-12T17:31:26.457Z,92.43
2023-12-12T17:33:54.621Z,91.73
2023-12-12T17:36:23.481Z,92.08
2023-12-12T17:38:50.512Z,91.68
2023-12-12T17:41:18.572Z,90.75
2023-12-12T17:43:47.916Z,91.33
2023-12-12T17:46:15.778Z,92.08
2023-12-12T17:48:44.599Z,90.71
2023-12-12T17:51:12.628Z,91.64
2023-12-12T17:53:40.476Z,90.79
2023-12-12T17:56:09.138Z,90.98
2023-12-12T17:58:37.159Z,91.54
2023-12-12T18:01:07.090Z,91.01
2023-12-12T18:03:34.942Z,91.58
2023-12-12T18:06:02.963Z,92.16
2023-12-12T18:08:30.728Z,91.46
2023-12-12T18:10:58.662Z,91.59
2023-12-12T18:13:26.610Z,91.17
2023-12-12T18:15:54.463Z,91.32
2023-12-12T18:18:23.680Z,91.20
2023-12-12T18:20:52.455Z,91.10
2023-12-12T18:23:20.518Z,91.64
2023-12-12T18:25:48.500Z,91.23
2023-12-12T18:28:16.661Z,91.29
2023-12-12T18:30:48.680Z,91.77
2023-12-12T18:33:17.314Z,91.48
2023-12-12T18:35:46.762Z,91.31
2023-12-12T18:38:14.660Z,91.31
2023-12-12T18:40:42.529Z,91.31
2023-12-12T18:43:10.428Z,91.39
2023-12-12T18:45:38.595Z,91.57
2023-12-12T18:48:06.820Z,92.10
2023-12-12T18:50:34.702Z,91.46
2023-12-12T18:53:04.337Z,91.02
2023-12-12T18:55:32.883Z,91.93
2023-12-12T18:58:00.786Z,92.20
2023-12-12T19:00:28.696Z,91.62
2023-12-12T19:02:56.626Z,92.37
2023-12-12T19:05:25.137Z,91.40
2023-12-12T19:07:55.072Z,92.51
2023-12-12T19:10:25.570Z,92.07
2023-12-12T19:12:53.453Z,92.04
2023-12-12T19:15:22.944Z,92.23
2023-12-12T19:17:50.840Z,91.68
2023-12-12T19:20:19.598Z,91.42
2023-12-12T19:22:48.624Z,92.02
2023-12-12T19:25:16.566Z,91.74
2023-12-12T19:27:45.926Z,91.64
2023-12-12T19:30:14.514Z,91.38
2023-12-12T19:32:43.743Z,91.65
2023-12-12T19:35:12.658Z,91.34
2023-12-12T19:37:40.616Z,91.84
2023-12-12T19:40:10.578Z,92.12
2023-12-12T19:42:38.511Z,91.94
2023-12-12T19:45:09.348Z,91.65
2023-12-12T19:47:38.133Z,91.82
2023-12-12T19:50:07.482Z,91.71
2023-12-12T19:52:35.421Z,92.09
2023-12-12T19:55:03.973Z,91.51
2023-12-12T19:57:32.045Z,91.58
2023-12-12T20:00:01.180Z,92.36
2023-12-12T20:02:30.353Z,91.58
2023-12-12T20:04:58.409Z,91.30
2023-12-12T20:07:26.305Z,91.32
2023-12-12T20:09:54.208Z,91.61
2023-12-12T20:12:22.050Z,91.06
2023-12-12T20:14:49.943Z,91.27
2023-12-12T20:17:18.145Z,91.18
2023-12-12T20:19:47.680Z,91.23
2023-12-12T20:22:17.316Z,91.59
2023-12-12T20:24:45.205Z,90.89
2023-12-12T20:27:13.072Z,90.91
2023-12-12T20:29:41.008Z,91.30
2023-12-12T20:32:09.128Z,91.24
2023-12-12T20:34:37.034Z,91.44
2023-12-12T20:37:06.515Z,91.07
2023-12-12T20:39:34.356Z,91.51
2023-12-12T20:42:02.165Z,90.95
2023-12-12T20:44:30.767Z,90.54
2023-12-12T20:46:58.793Z,90.72
2023-12-12T20:49:26.893Z,90.94
2023-12-12T20:51:58.231Z,90.61
2023-12-12T20:54:28.820Z,91.01
2023-12-12T20:56:57.552Z,91.14
2023-12-12T20:59:26.688Z,91.00
2023-12-12T21:01:54.719Z,91.62
2023-12-12T21:04:22.754Z,91.22
2023-12-12T21:06:50.656Z,91.32
2023-12-12T21:09:20.496Z,92.37
2023-12-12T21:11:49.681Z,91.45
2023-12-12T21:14:17.856Z,91.46
2023-12-12T21:16:45.760Z,91.92
2023-12-12T21:19:13.888Z,91.97
2023-12-12T21:21:43.247Z,91.83
2023-12-12T21:24:11.163Z,91.93
2023-12-12T21:26:39.186Z,91.49
2023-12-12T21:29:09.417Z,91.74
2023-12-12T21:31:39.323Z,92.32
2023-12-12T21:34:07.290Z,93.24
2023-12-12T21:36:56.374Z,94.22
2023-12-12T21:39:24.753Z,94.14
2023-12-12T21:41:52.532Z,94.86
2023-12-12T21:44:22.146Z,94.09
2023-12-12T21:46:50.326Z,94.74
2023-12-12T21:49:18.305Z,93.88
2023-12-12T21:51:46.141Z,93.36
2023-12-12T21:54:14.112Z,93.27
2023-12-12T21:56:41.915Z,93.27
2023-12-12T21:59:09.895Z,92.60
2023-12-12T22:01:40.605Z,92.87
2023-12-12T22:04:09.050Z,92.50
2023-12-12T22:06:40.140Z,93.14
2023-12-12T22:09:08.031Z,93.17
2023-12-12T22:11:35.805Z,93.78
2023-12-12T22:14:03.711Z,93.19
2023-12-12T22:16:30.705Z,93.55
2023-12-12T22:19:02.222Z,92.92
2023-12-12T22:21:37.295Z,93.32
2023-12-12T22:24:05.577Z,93.12
2023-12-12T22:26:33.402Z,92.73
2023-12-12T22:29:03.499Z,93.52
2023-12-12T22:31:31.558Z,93.25
2023-12-12T22:34:00.863Z,93.22
2023-12-12T22:36:28.963Z,92.99
2023-12-12T22:38:59.675Z,92.71
2023-12-12T22:41:27.701Z,92.68
2023-12-12T22:43:55.967Z,92.49
2023-12-12T22:46:25.294Z,92.96
2023-12-12T22:48:53.307Z,93.15
2023-12-12T22:51:24.421Z,93.07
2023-12-12T22:53:52.417Z,93.12
2023-12-12T22:56:24.539Z,92.96
2023-12-12T22:58:52.920Z,92.86
2023-12-12T23:01:22.747Z,93.47
2023-12-12T23:03:52.076Z,93.63
2023-12-12T23:06:22.202Z,93.80
2023-12-12T23:08:52.792Z,93.52
2023-12-12T23:11:20.576Z,93.77
2023-12-12T23:13:48.375Z,92.98
2023-12-12T23:16:16.322Z,93.17
2023-12-12T23:18:44.294Z,93.15
2023-12-12T23:21:12.484Z,93.64
2023-12-12T23:23:40.447Z,93.61
2023-12-12T23:26:09.785Z,93.26
2023-12-12T23:28:39.206Z,93.11
2023-12-12T23:31:09.008Z,93.09
2023-12-12T23:33:38.855Z,93.68
2023-12-12T23:36:07.584Z,93.52
2023-12-12T23:38:35.474Z,93.82
2023-12-12T23:41:03.371Z,93.72
2023-12-12T23:43:32.649Z,93.50
2023-12-12T23:46:01.544Z,93.85
2023-12-12T23:48:30.403Z,93.98
2023-12-12T23:50:58.216Z,94.05
2023-12-12T23:53:33.682Z,93.56
2023-12-12T23:56:02.036Z,93.99
2023-12-12T23:58:29.942Z,93.83
